Terminal Aerodrome Forecast
Issued by NWS

Home | Current Version | Previous Version | Text Only | Print | Product List | Glossary On
Versions: 1 2 3 4 5 6 7 8 9 10 11 12 13 14 15 16 17 18 19 20 21 22 23 24 25
000
FTUS45 KPSR 260800 AAA
TAFPHX
TAF AMD
KPHX 260802Z 2608/2706 08004KT P6SM FEW150 BKN250
     FM261400 13006KT P6SM SCT100 BKN150 OVC200
     FM262200 25004KT P6SM VCSH SCT080 BKN100 OVC150
     FM270100 26005KT P6SM -RA SCT040 OVC060=

USA.gov is the U.S. government's official web portal to all federal, state and local government web resources and services.